Elmer M — WYZ8282 — position and weather

sailwx.info

Track history (hours):
 
Tides and Currents Weather Stations Pressure Air Temp Water Temp Dewpoint Dewpoint Depression Visibility Wind Speed Wind Dir Waves Ship Positions

Elmer M

Owner: Manson Construction Co., SEATTLE, WA. More information available from US FCC via Universal Licensing System and Coast Guard Vessel Documentation Center.

Last reported at 2017-Sep-22 02:00 UTC. Time now 2017-Sep-23 16:17 UTC.
Position N 33°38' W 118°16'.

; draft 6.5 m.

MMSI: 365903144.

Date/timePositionNaut miles runAvg speedWind from/ knotsBaromVisibWave heightAir tempDewpointWater temp
2017-Sep-22 02:00N 33°38' W 118°16'3 5.2
2017-Sep-22 01:29N 33°39' W 118°13'3 5.8
2017-Sep-22 00:57N 33°42' W 118°12'2 5.4
2017-Sep-22 00:30N 33°44' W 118°10'3 3.9
2017-Sep-21 23:46N 33°45' W 118°07'1 1.3
2017-Sep-21 23:16N 33°46' W 118°07'0 0.1
2017-Sep-21 17:15N 33°45' W 118°07'1 5.7
2017-Sep-21 17:00N 33°44' W 118°08'4 8.8
2017-Sep-21 16:30N 33°45' W 118°13'1 1.1
2017-Sep-21 16:00N 33°45' W 118°13'2 2.8
2017-Sep-21 15:28N 33°44' W 118°14'2 4.2
2017-Sep-21 14:58N 33°43' W 118°16'2 4.1
2017-Sep-21 14:29N 33°45' W 118°16'1 2.9
2017-Sep-21 14:00N 33°46' W 118°15'0 0.5
2017-Sep-21 13:30N 33°47' W 118°15'0 0.0
2017-Sep-21 12:55N 33°47' W 118°15'0 0.0
2017-Sep-21 12:30N 33°47' W 118°15'0 0.0
2017-Sep-21 12:00N 33°47' W 118°15'0 0.0
2017-Sep-21 11:27N 33°47' W 118°15'0 0.0
2017-Sep-21 10:57N 33°47' W 118°15'0 0.0
2017-Sep-21 10:30N 33°47' W 118°15'1 1.2
2017-Sep-21 09:59N 33°46' W 118°15'1 2.3
2017-Sep-21 09:27N 33°46' W 118°13'4 1.1
2017-Sep-21 06:07N 33°44' W 118°09'0 0.0
2017-Sep-21 04:40N 33°44' W 118°09'0 0.0
2017-Sep-21 04:30N 33°44' W 118°09'0 0.3
2017-Sep-21 04:00N 33°44' W 118°09'2 4.1
2017-Sep-21 03:30N 33°43' W 118°11'4 7.2
2017-Sep-21 03:00N 33°40' W 118°12'5 8.2
2017-Sep-21 02:25N 33°37' W 118°17'1 1.9
2017-Sep-21 02:00N 33°37' W 118°16'3 5.3
2017-Sep-21 01:30N 33°39' W 118°14'3 5.1
2017-Sep-21 01:00N 33°41' W 118°12'3 5.8
2017-Sep-21 00:29N 33°44' W 118°10'3 5.5
2017-Sep-21 00:00N 33°44' W 118°07'1 1.2
2017-Sep-20 23:06N 33°45' W 118°07'0 0.0
2017-Sep-20 07:44N 33°45' W 118°07'1 1.6
2017-Sep-20 06:50N 33°44' W 118°08'1 3.0
2017-Sep-20 06:29N 33°44' W 118°09'0 0.0
2017-Sep-20 05:50N 33°44' W 118°09'0 0.0
2017-Sep-20 04:17N 33°44' W 118°09'0 0.5
2017-Sep-20 03:46N 33°44' W 118°09'3 5.5
2017-Sep-20 03:15N 33°42' W 118°11'6 7.6
2017-Sep-20 02:27N 33°38' W 118°16'1 1.9
2017-Sep-20 01:45N 33°38' W 118°15'1 5.7
2017-Sep-20 01:30N 33°39' W 118°13'3 5.9
2017-Sep-20 01:00N 33°42' W 118°12'3 5.4
2017-Sep-20 00:28N 33°44' W 118°10'2 5.1
2017-Sep-20 00:00N 33°45' W 118°07'1 1.5
2017-Sep-19 23:21N 33°46' W 118°07'2 0.1
2017-Sep-19 06:24N 33°44' W 118°09'0 0.4
2017-Sep-19 05:57N 33°44' W 118°09'0 0.0
2017-Sep-19 05:05N 33°44' W 118°09'0 3.5
2017-Sep-19 05:00N 33°44' W 118°09'2 4.0
2017-Sep-19 04:30N 33°43' W 118°11'6 3.1
2017-Sep-19 02:38N 33°38' W 118°15'1 5.1
2017-Sep-19 02:29N 33°38' W 118°14'3 6.0
2017-Sep-19 01:58N 33°41' W 118°12'3 5.9
2017-Sep-19 01:29N 33°44' W 118°10'3 5.6
2017-Sep-19 01:00N 33°44' W 118°07'1 2.3
2017-Sep-19 00:27N 33°46' W 118°07'0 0.3
2017-Sep-18 23:56N 33°46' W 118°07'0 0.1
2017-Sep-18 23:30N 33°46' W 118°07'0 0.1
2017-Sep-18 23:00N 33°46' W 118°07'0 0.0
2017-Sep-18 22:30N 33°46' W 118°07'1 2.8
2017-Sep-18 22:00N 33°44' W 118°07'2 3.8
2017-Sep-18 21:29N 33°45' W 118°09'1 1.2
2017-Sep-18 21:00N 33°45' W 118°10'3 6.1
2017-Sep-18 20:30N 33°46' W 118°13'1 2.4
2017-Sep-18 20:00N 33°47' W 118°15'0 0.0
2017-Sep-18 19:29N 33°47' W 118°15'2 3.8
2017-Sep-18 18:59N 33°45' W 118°16'1 2.0
2017-Sep-18 18:30N 33°44' W 118°16'1 2.4
2017-Sep-18 17:59N 33°43' W 118°15'  
2017-Sep-14 13:56N 33°44' W 118°08'1 3.2
2017-Sep-14 13:29N 33°45' W 118°07'0 0.0
2017-Sep-13 21:25N 33°45' W 118°07'2 4.4
2017-Sep-13 21:00N 33°44' W 118°09'3 5.2
2017-Sep-13 20:30N 33°44' W 118°12'3 6.9
2017-Sep-13 20:00N 33°44' W 118°16'0 0.8
2017-Sep-13 19:30N 33°44' W 118°16'0 0.0
2017-Sep-13 19:00N 33°44' W 118°16'0 0.0
2017-Sep-13 18:30N 33°44' W 118°16'0 0.0
2017-Sep-13 18:00N 33°44' W 118°16'0 0.0
2017-Sep-13 17:30N 33°44' W 118°16'0 0.0
2017-Sep-13 17:00N 33°44' W 118°16'0 0.0
2017-Sep-13 16:30N 33°44' W 118°16'0 0.1
2017-Sep-13 16:00N 33°44' W 118°16'0 0.0
2017-Sep-13 15:30N 33°44' W 118°16'0 0.0
2017-Sep-13 15:00N 33°44' W 118°16'2 3.5
2017-Sep-13 14:30N 33°43' W 118°15'4 7.6
2017-Sep-13 14:00N 33°44' W 118°10'3 5.6
2017-Sep-13 13:30N 33°45' W 118°07'0 0.0
2017-Sep-13 05:31N 33°45' W 118°07'2 3.7
2017-Sep-13 05:01N 33°44' W 118°09'3 6.1
2017-Sep-13 04:30N 33°42' W 118°11'4 7.6
2017-Sep-13 04:01N 33°39' W 118°14'3 6.7
2017-Sep-13 03:30N 33°37' W 118°17'2 5.0
2017-Sep-13 03:00N 33°38' W 118°15'3 5.6
2017-Sep-13 02:31N 33°40' W 118°12'3 6.3
2017-Sep-13 02:01N 33°43' W 118°11'3 5.6
2017-Sep-13 01:31N 33°44' W 118°08'0 0.0
2017-Sep-12 17:38N 33°44' W 118°08'1 8.0
2017-Sep-12 17:31N 33°44' W 118°09'2 0.1
2017-Sep-12 03:57N 33°45' W 118°07'2 4.1
2017-Sep-12 03:31N 33°44' W 118°09'2 4.2
2017-Sep-12 03:00N 33°43' W 118°11'4 7.4
2017-Sep-12 02:30N 33°40' W 118°12'4 8.2
2017-Sep-12 02:00N 33°38' W 118°16'  
Track history (hours):
 
Tides and Currents Weather Stations Pressure Air Temp Water Temp Dewpoint Dewpoint Depression Visibility Wind Speed Wind Dir Waves Ship Positions

Elmer M

Owner: Manson Construction Co., SEATTLE, WA. More information available from US FCC via Universal Licensing System and Coast Guard Vessel Documentation Center.

Last reported at 2017-Sep-22 02:00 UTC. Time now 2017-Sep-23 16:17 UTC.
Position N 33°38' W 118°16'.

; draft 6.5 m.

MMSI: 365903144.

Date/timePositionNaut miles runAvg speedWind from/ knotsBaromVisibWave heightAir tempDewpointWater temp
2017-Sep-22 02:00N 33°38' W 118°16'3 5.2
2017-Sep-22 01:29N 33°39' W 118°13'3 5.8
2017-Sep-22 00:57N 33°42' W 118°12'2 5.4
2017-Sep-22 00:30N 33°44' W 118°10'3 3.9
2017-Sep-21 23:46N 33°45' W 118°07'1 1.3
2017-Sep-21 23:16N 33°46' W 118°07'0 0.1
2017-Sep-21 17:15N 33°45' W 118°07'1 5.7
2017-Sep-21 17:00N 33°44' W 118°08'4 8.8
2017-Sep-21 16:30N 33°45' W 118°13'1 1.1
2017-Sep-21 16:00N 33°45' W 118°13'2 2.8
2017-Sep-21 15:28N 33°44' W 118°14'2 4.2
2017-Sep-21 14:58N 33°43' W 118°16'2 4.1
2017-Sep-21 14:29N 33°45' W 118°16'1 2.9
2017-Sep-21 14:00N 33°46' W 118°15'0 0.5
2017-Sep-21 13:30N 33°47' W 118°15'0 0.0
2017-Sep-21 12:55N 33°47' W 118°15'0 0.0
2017-Sep-21 12:30N 33°47' W 118°15'0 0.0
2017-Sep-21 12:00N 33°47' W 118°15'0 0.0
2017-Sep-21 11:27N 33°47' W 118°15'0 0.0
2017-Sep-21 10:57N 33°47' W 118°15'0 0.0
2017-Sep-21 10:30N 33°47' W 118°15'1 1.2
2017-Sep-21 09:59N 33°46' W 118°15'1 2.3
2017-Sep-21 09:27N 33°46' W 118°13'4 1.1
2017-Sep-21 06:07N 33°44' W 118°09'0 0.0
2017-Sep-21 04:40N 33°44' W 118°09'0 0.0
2017-Sep-21 04:30N 33°44' W 118°09'0 0.3
2017-Sep-21 04:00N 33°44' W 118°09'2 4.1
2017-Sep-21 03:30N 33°43' W 118°11'4 7.2
2017-Sep-21 03:00N 33°40' W 118°12'5 8.2
2017-Sep-21 02:25N 33°37' W 118°17'1 1.9
2017-Sep-21 02:00N 33°37' W 118°16'3 5.3
2017-Sep-21 01:30N 33°39' W 118°14'3 5.1
2017-Sep-21 01:00N 33°41' W 118°12'3 5.8
2017-Sep-21 00:29N 33°44' W 118°10'3 5.5
2017-Sep-21 00:00N 33°44' W 118°07'1 1.2
2017-Sep-20 23:06N 33°45' W 118°07'0 0.0
2017-Sep-20 07:44N 33°45' W 118°07'1 1.6
2017-Sep-20 06:50N 33°44' W 118°08'1 3.0
2017-Sep-20 06:29N 33°44' W 118°09'0 0.0
2017-Sep-20 05:50N 33°44' W 118°09'0 0.0
2017-Sep-20 04:17N 33°44' W 118°09'0 0.5
2017-Sep-20 03:46N 33°44' W 118°09'3 5.5
2017-Sep-20 03:15N 33°42' W 118°11'6 7.6
2017-Sep-20 02:27N 33°38' W 118°16'1 1.9
2017-Sep-20 01:45N 33°38' W 118°15'1 5.7
2017-Sep-20 01:30N 33°39' W 118°13'3 5.9
2017-Sep-20 01:00N 33°42' W 118°12'3 5.4
2017-Sep-20 00:28N 33°44' W 118°10'2 5.1
2017-Sep-20 00:00N 33°45' W 118°07'1 1.5
2017-Sep-19 23:21N 33°46' W 118°07'2 0.1
2017-Sep-19 06:24N 33°44' W 118°09'0 0.4
2017-Sep-19 05:57N 33°44' W 118°09'0 0.0
2017-Sep-19 05:05N 33°44' W 118°09'0 3.5
2017-Sep-19 05:00N 33°44' W 118°09'2 4.0
2017-Sep-19 04:30N 33°43' W 118°11'6 3.1
2017-Sep-19 02:38N 33°38' W 118°15'1 5.1
2017-Sep-19 02:29N 33°38' W 118°14'3 6.0
2017-Sep-19 01:58N 33°41' W 118°12'3 5.9
2017-Sep-19 01:29N 33°44' W 118°10'3 5.6
2017-Sep-19 01:00N 33°44' W 118°07'1 2.3
2017-Sep-19 00:27N 33°46' W 118°07'0 0.3
2017-Sep-18 23:56N 33°46' W 118°07'0 0.1
2017-Sep-18 23:30N 33°46' W 118°07'0 0.1
2017-Sep-18 23:00N 33°46' W 118°07'0 0.0
2017-Sep-18 22:30N 33°46' W 118°07'1 2.8
2017-Sep-18 22:00N 33°44' W 118°07'2 3.8
2017-Sep-18 21:29N 33°45' W 118°09'1 1.2
2017-Sep-18 21:00N 33°45' W 118°10'3 6.1
2017-Sep-18 20:30N 33°46' W 118°13'1 2.4
2017-Sep-18 20:00N 33°47' W 118°15'0 0.0
2017-Sep-18 19:29N 33°47' W 118°15'2 3.8
2017-Sep-18 18:59N 33°45' W 118°16'1 2.0
2017-Sep-18 18:30N 33°44' W 118°16'1 2.4
2017-Sep-18 17:59N 33°43' W 118°15'  
2017-Sep-14 13:56N 33°44' W 118°08'1 3.2
2017-Sep-14 13:29N 33°45' W 118°07'0 0.0
2017-Sep-13 21:25N 33°45' W 118°07'2 4.4
2017-Sep-13 21:00N 33°44' W 118°09'3 5.2
2017-Sep-13 20:30N 33°44' W 118°12'3 6.9
2017-Sep-13 20:00N 33°44' W 118°16'0 0.8
2017-Sep-13 19:30N 33°44' W 118°16'0 0.0
2017-Sep-13 19:00N 33°44' W 118°16'0 0.0
2017-Sep-13 18:30N 33°44' W 118°16'0 0.0
2017-Sep-13 18:00N 33°44' W 118°16'0 0.0
2017-Sep-13 17:30N 33°44' W 118°16'0 0.0
2017-Sep-13 17:00N 33°44' W 118°16'0 0.0
2017-Sep-13 16:30N 33°44' W 118°16'0 0.1
2017-Sep-13 16:00N 33°44' W 118°16'0 0.0
2017-Sep-13 15:30N 33°44' W 118°16'0 0.0
2017-Sep-13 15:00N 33°44' W 118°16'2 3.5
2017-Sep-13 14:30N 33°43' W 118°15'4 7.6
2017-Sep-13 14:00N 33°44' W 118°10'3 5.6
2017-Sep-13 13:30N 33°45' W 118°07'0 0.0
2017-Sep-13 05:31N 33°45' W 118°07'2 3.7
2017-Sep-13 05:01N 33°44' W 118°09'3 6.1
2017-Sep-13 04:30N 33°42' W 118°11'4 7.6
2017-Sep-13 04:01N 33°39' W 118°14'3 6.7
2017-Sep-13 03:30N 33°37' W 118°17'2 5.0
2017-Sep-13 03:00N 33°38' W 118°15'3 5.6
2017-Sep-13 02:31N 33°40' W 118°12'3 6.3
2017-Sep-13 02:01N 33°43' W 118°11'3 5.6
2017-Sep-13 01:31N 33°44' W 118°08'0 0.0
2017-Sep-12 17:38N 33°44' W 118°08'1 8.0
2017-Sep-12 17:31N 33°44' W 118°09'2 0.1
2017-Sep-12 03:57N 33°45' W 118°07'2 4.1
2017-Sep-12 03:31N 33°44' W 118°09'2 4.2
2017-Sep-12 03:00N 33°43' W 118°11'4 7.4
2017-Sep-12 02:30N 33°40' W 118°12'4 8.2
2017-Sep-12 02:00N 33°38' W 118°16'  

Dump ship's entire track history